sensor_id;sensor_type;location;lat;lon;timestamp;pressure;altitude;pressure_sealevel;temperature;humidity
41515;BME280;27247;48.020;16.720;2023-05-23T00:02:39;99478.09;;;16.08;100.00
41515;BME280;27247;48.020;16.720;2023-05-23T00:06:49;99467.19;;;15.96;100.00
41515;BME280;27247;48.020;16.720;2023-05-23T00:10:59;99473.81;;;16.01;100.00
41515;BME280;27247;48.020;16.720;2023-05-23T00:15:10;99473.53;;;16.09;100.00
41515;BME280;27247;48.020;16.720;2023-05-23T00:19:21;99475.78;;;16.12;100.00
41515;BME280;27247;48.020;16.720;2023-05-23T00:23:31;99468.53;;;16.12;100.00
41515;BME280;27247;48.020;16.720;2023-05-23T00:27:43;99474.13;;;16.11;100.00
41515;BME280;27247;48.020;16.720;2023-05-23T00:31:53;99468.97;;;16.09;100.00
41515;BME280;27247;48.020;16.720;2023-05-23T00:36:03;99474.03;;;15.99;100.00
41515;BME280;27247;48.020;16.720;2023-05-23T00:40:14;99464.00;;;15.81;100.00
41515;BME280;27247;48.020;16.720;2023-05-23T00:44:24;99470.69;;;15.72;100.00
41515;BME280;27247;48.020;16.720;2023-05-23T00:48:35;99465.06;;;15.80;100.00
41515;BME280;27247;48.020;16.720;2023-05-23T00:52:48;99466.31;;;15.78;100.00
41515;BME280;27247;48.020;16.720;2023-05-23T00:56:59;99463.84;;;15.76;100.00
41515;BME280;27247;48.020;16.720;2023-05-23T01:01:09;99467.19;;;15.72;100.00
41515;BME280;27247;48.020;16.720;2023-05-23T01:05:20;99469.88;;;15.72;100.00
41515;BME280;27247;48.020;16.720;2023-05-23T01:09:31;99464.50;;;15.72;100.00
41515;BME280;27247;48.020;16.720;2023-05-23T01:13:46;99459.97;;;15.66;100.00
41515;BME280;27247;48.020;16.720;2023-05-23T01:22:21;99457.91;;;15.92;100.00
41515;BME280;27247;48.020;16.720;2023-05-23T01:31:10;99453.63;;;15.85;100.00
41515;BME280;27247;48.020;16.720;2023-05-23T01:35:25;99462.31;;;15.87;100.00
41515;BME280;27247;48.020;16.720;2023-05-23T01:39:36;99464.50;;;15.96;100.00
41515;BME280;27247;48.020;16.720;2023-05-23T01:43:47;99456.03;;;15.93;100.00
41515;BME280;27247;48.020;16.720;2023-05-23T01:47:57;99454.00;;;15.88;100.00
41515;BME280;27247;48.020;16.720;2023-05-23T01:52:08;99452.19;;;15.82;100.00
41515;BME280;27247;48.020;16.720;2023-05-23T01:56:21;99441.47;;;15.76;100.00
41515;BME280;27247;48.020;16.720;2023-05-23T02:00:31;99431.84;;;15.48;100.00
41515;BME280;27247;48.020;16.720;2023-05-23T02:04:42;99433.75;;;15.41;100.00
41515;BME280;27247;48.020;16.720;2023-05-23T02:08:52;99430.41;;;15.46;100.00
41515;BME280;27247;48.020;16.720;2023-05-23T02:13:03;99435.59;;;15.47;100.00
41515;BME280;27247;48.020;16.720;2023-05-23T02:17:13;99424.56;;;15.55;100.00
41515;BME280;27247;48.020;16.720;2023-05-23T02:21:25;99428.72;;;15.58;100.00
41515;BME280;27247;48.020;16.720;2023-05-23T02:25:36;99424.34;;;15.63;100.00
41515;BME280;27247;48.020;16.720;2023-05-23T02:29:46;99422.09;;;15.60;100.00
41515;BME280;27247;48.020;16.720;2023-05-23T02:33:56;99418.31;;;15.68;100.00
41515;BME280;27247;48.020;16.720;2023-05-23T02:38:07;99417.25;;;15.69;100.00
41515;BME280;27247;48.020;16.720;2023-05-23T02:42:17;99415.84;;;15.67;100.00
41515;BME280;27247;48.020;16.720;2023-05-23T02:46:27;99416.69;;;15.54;100.00
41515;BME280;27247;48.020;16.720;2023-05-23T02:50:38;99422.91;;;15.54;100.00
41515;BME280;27247;48.020;16.720;2023-05-23T02:54:48;99421.44;;;15.58;100.00
41515;BME280;27247;48.020;16.720;2023-05-23T02:58:58;99419.31;;;15.74;100.00
41515;BME280;27247;48.020;16.720;2023-05-23T03:03:09;99423.03;;;15.73;100.00
41515;BME280;27247;48.020;16.720;2023-05-23T03:07:20;99423.25;;;15.71;100.00
41515;BME280;27247;48.020;16.720;2023-05-23T03:11:31;99416.69;;;15.54;100.00
41515;BME280;27247;48.020;16.720;2023-05-23T03:15:41;99418.00;;;15.45;100.00
41515;BME280;27247;48.020;16.720;2023-05-23T03:19:51;99416.56;;;15.42;100.00
41515;BME280;27247;48.020;16.720;2023-05-23T03:24:02;99417.94;;;15.51;100.00
41515;BME280;27247;48.020;16.720;2023-05-23T03:28:12;99414.41;;;15.57;100.00
41515;BME280;27247;48.020;16.720;2023-05-23T03:32:22;99429.19;;;15.42;100.00
41515;BME280;27247;48.020;16.720;2023-05-23T03:36:33;99425.03;;;15.46;100.00
41515;BME280;27247;48.020;16.720;2023-05-23T03:40:44;99428.16;;;15.43;100.00
41515;BME280;27247;48.020;16.720;2023-05-23T03:44:55;99431.69;;;15.43;100.00
41515;BME280;27247;48.020;16.720;2023-05-23T03:49:05;99431.50;;;15.38;100.00
41515;BME280;27247;48.020;16.720;2023-05-23T03:53:16;99436.88;;;15.38;100.00
41515;BME280;27247;48.020;16.720;2023-05-23T03:57:26;99430.69;;;15.38;100.00
41515;BME280;27247;48.020;16.720;2023-05-23T04:01:36;99439.19;;;15.34;100.00
41515;BME280;27247;48.020;16.720;2023-05-23T04:05:48;99443.56;;;15.29;100.00
41515;BME280;27247;48.020;16.720;2023-05-23T04:09:59;99446.66;;;15.32;100.00
41515;BME280;27247;48.020;16.720;2023-05-23T04:14:10;99443.28;;;15.44;100.00
41515;BME280;27247;48.020;16.720;2023-05-23T04:18:21;99446.78;;;15.44;100.00
41515;BME280;27247;48.020;16.720;2023-05-23T04:22:32;99445.72;;;15.52;100.00
41515;BME280;27247;48.020;16.720;2023-05-23T04:26:42;99455.63;;;15.64;100.00
41515;BME280;27247;48.020;16.720;2023-05-23T04:30:53;99455.41;;;15.66;100.00
41515;BME280;27247;48.020;16.720;2023-05-23T04:35:03;99459.88;;;15.79;100.00
41515;BME280;27247;48.020;16.720;2023-05-23T04:39:15;99458.88;;;15.73;100.00
41515;BME280;27247;48.020;16.720;2023-05-23T04:43:25;99453.16;;;15.63;100.00
41515;BME280;27247;48.020;16.720;2023-05-23T04:47:38;99459.44;;;15.82;100.00
41515;BME280;27247;48.020;16.720;2023-05-23T04:51:48;99458.19;;;15.84;100.00
41515;BME280;27247;48.020;16.720;2023-05-23T04:55:58;99459.84;;;15.85;100.00
41515;BME280;27247;48.020;16.720;2023-05-23T05:00:09;99457.53;;;15.89;100.00
41515;BME280;27247;48.020;16.720;2023-05-23T05:04:20;99452.97;;;15.89;100.00
41515;BME280;27247;48.020;16.720;2023-05-23T05:08:32;99452.06;;;15.95;100.00
41515;BME280;27247;48.020;16.720;2023-05-23T05:12:46;99446.63;;;16.02;100.00
41515;BME280;27247;48.020;16.720;2023-05-23T05:16:58;99454.06;;;16.07;100.00
41515;BME280;27247;48.020;16.720;2023-05-23T05:21:08;99457.75;;;16.12;100.00
41515;BME280;27247;48.020;16.720;2023-05-23T05:25:19;99450.81;;;16.23;100.00
41515;BME280;27247;48.020;16.720;2023-05-23T05:29:30;99446.41;;;16.28;100.00
41515;BME280;27247;48.020;16.720;2023-05-23T05:33:42;99448.56;;;16.38;100.00
41515;BME280;27247;48.020;16.720;2023-05-23T05:37:54;99453.75;;;16.58;100.00
41515;BME280;27247;48.020;16.720;2023-05-23T05:42:05;99448.50;;;16.70;100.00
41515;BME280;27247;48.020;16.720;2023-05-23T05:46:16;99441.03;;;16.72;100.00
41515;BME280;27247;48.020;16.720;2023-05-23T05:50:27;99441.31;;;16.82;100.00
41515;BME280;27247;48.020;16.720;2023-05-23T05:54:37;99437.53;;;17.01;100.00
41515;BME280;27247;48.020;16.720;2023-05-23T05:58:47;99438.09;;;17.21;100.00
41515;BME280;27247;48.020;16.720;2023-05-23T06:02:58;99444.28;;;17.40;100.00
41515;BME280;27247;48.020;16.720;2023-05-23T06:07:08;99444.31;;;17.52;100.00
41515;BME280;27247;48.020;16.720;2023-05-23T06:11:18;99446.00;;;17.65;100.00
41515;BME280;27247;48.020;16.720;2023-05-23T06:15:29;99447.38;;;17.74;100.00
41515;BME280;27247;48.020;16.720;2023-05-23T06:19:39;99445.06;;;18.01;99.18
41515;BME280;27247;48.020;16.720;2023-05-23T06:23:50;99448.97;;;18.16;97.01
41515;BME280;27247;48.020;16.720;2023-05-23T06:28:01;99448.63;;;18.36;97.54
41515;BME280;27247;48.020;16.720;2023-05-23T06:32:11;99445.06;;;18.59;96.08
41515;BME280;27247;48.020;16.720;2023-05-23T06:36:22;99444.16;;;18.77;96.24
41515;BME280;27247;48.020;16.720;2023-05-23T06:40:32;99442.81;;;19.03;92.65
41515;BME280;27247;48.020;16.720;2023-05-23T06:44:42;99443.53;;;19.27;92.88
41515;BME280;27247;48.020;16.720;2023-05-23T06:48:53;99445.72;;;19.41;92.74
41515;BME280;27247;48.020;16.720;2023-05-23T06:53:03;99434.69;;;19.60;89.39
41515;BME280;27247;48.020;16.720;2023-05-23T06:57:13;99437.28;;;19.83;88.15
41515;BME280;27247;48.020;16.720;2023-05-23T07:01:25;99428.09;;;20.01;87.68
41515;BME280;27247;48.020;16.720;2023-05-23T07:05:35;99435.00;;;20.08;87.58
41515;BME280;27247;48.020;16.720;2023-05-23T07:09:46;99435.66;;;20.16;87.08
41515;BME280;27247;48.020;16.720;2023-05-23T07:13:56;99446.22;;;20.34;86.53
41515;BME280;27247;48.020;16.720;2023-05-23T07:18:06;99447.19;;;20.61;84.32
41515;BME280;27247;48.020;16.720;2023-05-23T07:22:17;99420.81;;;20.79;84.83
41515;BME280;27247;48.020;16.720;2023-05-23T07:26:27;99424.59;;;21.21;82.42
41515;BME280;27247;48.020;16.720;2023-05-23T07:30:37;99418.75;;;21.56;82.09
41515;BME280;27247;48.020;16.720;2023-05-23T07:34:48;99415.09;;;21.73;80.55
41515;BME280;27247;48.020;16.720;2023-05-23T07:38:58;99411.22;;;21.95;77.48
41515;BME280;27247;48.020;16.720;2023-05-23T07:43:08;99418.34;;;22.39;76.86
41515;BME280;27247;48.020;16.720;2023-05-23T07:47:19;99409.81;;;22.72;73.68
41515;BME280;27247;48.020;16.720;2023-05-23T07:51:29;99417.81;;;22.84;75.20
41515;BME280;27247;48.020;16.720;2023-05-23T07:55:40;99417.94;;;23.09;74.19
41515;BME280;27247;48.020;16.720;2023-05-23T07:59:51;99412.53;;;23.30;74.27
41515;BME280;27247;48.020;16.720;2023-05-23T08:04:01;99407.84;;;23.10;73.51
41515;BME280;27247;48.020;16.720;2023-05-23T08:08:12;99409.34;;;23.58;72.55
41515;BME280;27247;48.020;16.720;2023-05-23T08:12:23;99403.34;;;23.71;71.85
41515;BME280;27247;48.020;16.720;2023-05-23T08:16:34;99409.63;;;23.87;72.08
41515;BME280;27247;48.020;16.720;2023-05-23T08:20:44;99403.06;;;24.13;72.76
41515;BME280;27247;48.020;16.720;2023-05-23T08:24:55;99404.44;;;24.21;69.74
41515;BME280;27247;48.020;16.720;2023-05-23T08:29:05;99403.84;;;24.55;69.77
41515;BME280;27247;48.020;16.720;2023-05-23T08:33:15;99394.13;;;24.93;68.92
41515;BME280;27247;48.020;16.720;2023-05-23T08:37:26;99386.78;;;24.98;65.85
41515;BME280;27247;48.020;16.720;2023-05-23T08:41:36;99388.34;;;25.09;66.55
41515;BME280;27247;48.020;16.720;2023-05-23T08:45:48;99383.47;;;25.45;67.08
41515;BME280;27247;48.020;16.720;2023-05-23T08:50:01;99387.28;;;25.89;66.50
41515;BME280;27247;48.020;16.720;2023-05-23T08:54:12;99390.22;;;25.97;63.14
41515;BME280;27247;48.020;16.720;2023-05-23T08:58:23;99393.38;;;26.44;64.53
41515;BME280;27247;48.020;16.720;2023-05-23T09:02:38;99391.22;;;26.64;63.03
41515;BME280;27247;48.020;16.720;2023-05-23T09:06:48;99386.59;;;26.84;61.89
41515;BME280;27247;48.020;16.720;2023-05-23T09:11:01;99387.72;;;26.59;60.71
41515;BME280;27247;48.020;16.720;2023-05-23T09:15:12;99391.72;;;26.90;63.19
41515;BME280;27247;48.020;16.720;2023-05-23T09:19:23;99378.97;;;26.33;61.04
41515;BME280;27247;48.020;16.720;2023-05-23T09:23:34;99380.81;;;26.08;62.33
41515;BME280;27247;48.020;16.720;2023-05-23T09:27:45;99378.63;;;26.63;61.07
41515;BME280;27247;48.020;16.720;2023-05-23T09:32:09;99379.44;;;26.40;63.83
41515;BME280;27247;48.020;16.720;2023-05-23T09:36:20;99377.63;;;26.54;61.34
41515;BME280;27247;48.020;16.720;2023-05-23T09:40:31;99384.56;;;26.70;60.36
41515;BME280;27247;48.020;16.720;2023-05-23T09:44:42;99371.59;;;27.00;59.33
41515;BME280;27247;48.020;16.720;2023-05-23T09:48:52;99384.13;;;26.82;59.79
41515;BME280;27247;48.020;16.720;2023-05-23T09:53:04;99370.47;;;27.01;59.38
41515;BME280;27247;48.020;16.720;2023-05-23T09:57:15;99372.44;;;27.38;59.88
41515;BME280;27247;48.020;16.720;2023-05-23T10:01:30;99373.19;;;27.95;60.94
41515;BME280;27247;48.020;16.720;2023-05-23T10:05:46;99376.88;;;28.37;58.25
41515;BME280;27247;48.020;16.720;2023-05-23T10:10:02;99367.31;;;28.61;56.76
41515;BME280;27247;48.020;16.720;2023-05-23T10:14:13;99370.28;;;27.73;59.44
41515;BME280;27247;48.020;16.720;2023-05-23T10:18:25;99361.31;;;28.59;58.21
41515;BME280;27247;48.020;16.720;2023-05-23T10:22:39;99353.53;;;29.03;56.54
41515;BME280;27247;48.020;16.720;2023-05-23T10:26:50;99351.28;;;29.18;56.45
41515;BME280;27247;48.020;16.720;2023-05-23T10:31:01;99341.22;;;29.36;55.57
41515;BME280;27247;48.020;16.720;2023-05-23T10:35:39;99341.72;;;29.38;56.99
41515;BME280;27247;48.020;16.720;2023-05-23T10:40:11;99331.53;;;29.39;56.93
41515;BME280;27247;48.020;16.720;2023-05-23T10:44:26;99327.41;;;29.72;54.70
41515;BME280;27247;48.020;16.720;2023-05-23T10:48:42;99327.13;;;29.51;55.55
41515;BME280;27247;48.020;16.720;2023-05-23T10:52:53;99322.78;;;29.81;54.48
41515;BME280;27247;48.020;16.720;2023-05-23T10:57:04;99317.03;;;29.69;54.97
41515;BME280;27247;48.020;16.720;2023-05-23T11:01:15;99314.34;;;30.09;55.90
41515;BME280;27247;48.020;16.720;2023-05-23T11:05:28;99312.09;;;30.11;54.42
41515;BME280;27247;48.020;16.720;2023-05-23T11:10:07;99303.03;;;30.50;54.22
41515;BME280;27247;48.020;16.720;2023-05-23T11:15:17;99293.88;;;30.89;55.03
41515;BME280;27247;48.020;16.720;2023-05-23T11:18:48;99288.19;;;30.77;56.74
41515;BME280;27247;48.020;16.720;2023-05-23T11:23:00;99277.75;;;30.17;57.04
41515;BME280;27247;48.020;16.720;2023-05-23T11:27:11;99282.84;;;28.89;59.31
41515;BME280;27247;48.020;16.720;2023-05-23T11:31:22;99269.66;;;29.00;59.53
41515;BME280;27247;48.020;16.720;2023-05-23T11:35:34;99266.59;;;29.38;58.93
41515;BME280;27247;48.020;16.720;2023-05-23T11:39:45;99265.72;;;29.51;56.99
41515;BME280;27247;48.020;16.720;2023-05-23T11:43:55;99253.81;;;29.19;56.63
41515;BME280;27247;48.020;16.720;2023-05-23T11:48:15;99261.06;;;29.38;57.92
41515;BME280;27247;48.020;16.720;2023-05-23T11:52:31;99263.22;;;29.63;56.95
41515;BME280;27247;48.020;16.720;2023-05-23T11:56:41;99251.47;;;29.80;56.62
41515;BME280;27247;48.020;16.720;2023-05-23T12:01:01;99254.41;;;29.83;54.67
41515;BME280;27247;48.020;16.720;2023-05-23T12:05:16;99252.91;;;29.77;55.38
41515;BME280;27247;48.020;16.720;2023-05-23T12:09:26;99238.19;;;29.51;55.41
41515;BME280;27247;48.020;16.720;2023-05-23T12:13:36;99226.41;;;29.59;55.94
41515;BME280;27247;48.020;16.720;2023-05-23T12:17:46;99218.84;;;29.42;55.57
41515;BME280;27247;48.020;16.720;2023-05-23T12:22:04;99215.25;;;29.42;55.39
41515;BME280;27247;48.020;16.720;2023-05-23T12:26:16;99207.19;;;29.76;53.95
41515;BME280;27247;48.020;16.720;2023-05-23T12:30:26;99196.25;;;29.94;54.08
41515;BME280;27247;48.020;16.720;2023-05-23T12:34:40;99199.09;;;30.11;53.46
41515;BME280;27247;48.020;16.720;2023-05-23T12:38:52;99198.53;;;29.61;54.77
41515;BME280;27247;48.020;16.720;2023-05-23T12:43:02;99201.28;;;29.30;55.85
41515;BME280;27247;48.020;16.720;2023-05-23T12:47:13;99202.19;;;29.03;55.41
41515;BME280;27247;48.020;16.720;2023-05-23T12:51:24;99191.13;;;28.94;55.85
41515;BME280;27247;48.020;16.720;2023-05-23T12:55:34;99203.25;;;28.57;58.54
41515;BME280;27247;48.020;16.720;2023-05-23T12:59:45;99212.34;;;28.16;58.76
41515;BME280;27247;48.020;16.720;2023-05-23T13:03:55;99219.75;;;27.28;63.46
41515;BME280;27247;48.020;16.720;2023-05-23T13:08:05;99222.66;;;26.62;64.17
41515;BME280;27247;48.020;16.720;2023-05-23T13:12:16;99216.50;;;26.51;63.56
41515;BME280;27247;48.020;16.720;2023-05-23T13:16:27;99213.31;;;26.44;62.99
41515;BME280;27247;48.020;16.720;2023-05-23T13:20:37;99208.66;;;26.63;63.05
41515;BME280;27247;48.020;16.720;2023-05-23T13:24:47;99204.56;;;26.80;64.32
41515;BME280;27247;48.020;16.720;2023-05-23T13:28:58;99207.16;;;26.52;63.51
41515;BME280;27247;48.020;16.720;2023-05-23T13:33:08;99211.53;;;26.53;68.60
41515;BME280;27247;48.020;16.720;2023-05-23T13:37:18;99216.75;;;25.83;63.20
41515;BME280;27247;48.020;16.720;2023-05-23T13:41:29;99231.56;;;25.82;64.00
41515;BME280;27247;48.020;16.720;2023-05-23T13:45:39;99240.41;;;25.74;64.94
41515;BME280;27247;48.020;16.720;2023-05-23T13:49:49;99248.97;;;25.62;64.21
41515;BME280;27247;48.020;16.720;2023-05-23T13:54:00;99248.00;;;25.19;64.37
41515;BME280;27247;48.020;16.720;2023-05-23T13:58:11;99244.22;;;25.44;64.82
41515;BME280;27247;48.020;16.720;2023-05-23T14:02:21;99242.31;;;25.44;64.35
41515;BME280;27247;48.020;16.720;2023-05-23T14:06:32;99250.28;;;25.70;64.23
41515;BME280;27247;48.020;16.720;2023-05-23T14:10:42;99250.59;;;25.68;66.95
41515;BME280;27247;48.020;16.720;2023-05-23T14:14:53;99280.28;;;26.09;63.98
41515;BME280;27247;48.020;16.720;2023-05-23T14:19:03;99265.72;;;24.77;64.13
41515;BME280;27247;48.020;16.720;2023-05-23T14:23:13;99260.78;;;24.30;65.49
41515;BME280;27247;48.020;16.720;2023-05-23T14:27:25;99257.88;;;23.96;65.82
41515;BME280;27247;48.020;16.720;2023-05-23T14:31:36;99236.84;;;23.97;65.74
41515;BME280;27247;48.020;16.720;2023-05-23T14:35:48;99239.88;;;23.75;63.54
41515;BME280;27247;48.020;16.720;2023-05-23T14:39:59;99248.88;;;23.75;62.42
41515;BME280;27247;48.020;16.720;2023-05-23T14:44:10;99307.81;;;23.97;64.89
41515;BME280;27247;48.020;16.720;2023-05-23T14:48:20;99357.22;;;23.70;73.96
41515;BME280;27247;48.020;16.720;2023-05-23T14:52:30;99425.00;;;22.58;86.48
41515;BME280;27247;48.020;16.720;2023-05-23T14:56:41;99501.66;;;21.54;93.68
41515;BME280;27247;48.020;16.720;2023-05-23T15:00:52;99501.25;;;19.67;97.49
41515;BME280;27247;48.020;16.720;2023-05-23T15:05:03;99543.50;;;18.76;100.00
41515;BME280;27247;48.020;16.720;2023-05-23T15:09:14;99553.41;;;18.29;100.00
41515;BME280;27247;48.020;16.720;2023-05-23T15:13:24;99540.44;;;18.08;100.00
41515;BME280;27247;48.020;16.720;2023-05-23T15:17:34;99539.19;;;17.80;100.00
41515;BME280;27247;48.020;16.720;2023-05-23T15:21:45;99531.63;;;17.34;100.00
41515;BME280;27247;48.020;16.720;2023-05-23T15:25:56;99522.84;;;17.39;100.00
41515;BME280;27247;48.020;16.720;2023-05-23T15:30:08;99545.16;;;17.64;100.00
41515;BME280;27247;48.020;16.720;2023-05-23T15:34:18;99566.66;;;17.41;100.00
41515;BME280;27247;48.020;16.720;2023-05-23T15:38:28;99574.19;;;17.39;100.00
41515;BME280;27247;48.020;16.720;2023-05-23T15:42:39;99575.66;;;17.53;100.00
41515;BME280;27247;48.020;16.720;2023-05-23T15:46:50;99578.41;;;17.65;100.00
41515;BME280;27247;48.020;16.720;2023-05-23T15:51:00;99581.22;;;17.58;100.00
41515;BME280;27247;48.020;16.720;2023-05-23T15:55:11;99585.47;;;17.66;100.00
41515;BME280;27247;48.020;16.720;2023-05-23T15:59:21;99582.44;;;17.80;100.00
41515;BME280;27247;48.020;16.720;2023-05-23T16:03:31;99584.34;;;17.92;100.00
41515;BME280;27247;48.020;16.720;2023-05-23T16:07:42;99595.81;;;18.05;100.00
41515;BME280;27247;48.020;16.720;2023-05-23T16:11:53;99601.44;;;18.04;100.00
41515;BME280;27247;48.020;16.720;2023-05-23T16:16:03;99595.72;;;18.12;100.00
41515;BME280;27247;48.020;16.720;2023-05-23T16:20:14;99594.66;;;18.13;100.00
41515;BME280;27247;48.020;16.720;2023-05-23T16:24:24;99596.66;;;18.17;100.00
41515;BME280;27247;48.020;16.720;2023-05-23T16:28:37;99598.31;;;18.18;100.00
41515;BME280;27247;48.020;16.720;2023-05-23T16:32:47;99598.66;;;18.10;100.00
41515;BME280;27247;48.020;16.720;2023-05-23T16:36:57;99602.19;;;18.11;100.00
41515;BME280;27247;48.020;16.720;2023-05-23T16:41:08;99594.88;;;18.11;100.00
41515;BME280;27247;48.020;16.720;2023-05-23T16:45:18;99595.13;;;18.10;100.00
41515;BME280;27247;48.020;16.720;2023-05-23T16:49:29;99585.34;;;18.09;100.00
41515;BME280;27247;48.020;16.720;2023-05-23T16:53:39;99583.72;;;18.08;100.00
41515;BME280;27247;48.020;16.720;2023-05-23T16:57:50;99584.50;;;17.97;100.00
41515;BME280;27247;48.020;16.720;2023-05-23T17:02:01;99583.66;;;17.96;100.00
41515;BME280;27247;48.020;16.720;2023-05-23T17:06:11;99567.28;;;17.79;100.00
41515;BME280;27247;48.020;16.720;2023-05-23T17:10:21;99573.03;;;17.83;100.00
41515;BME280;27247;48.020;16.720;2023-05-23T17:14:32;99562.22;;;17.65;100.00
41515;BME280;27247;48.020;16.720;2023-05-23T17:18:43;99560.34;;;17.65;100.00
41515;BME280;27247;48.020;16.720;2023-05-23T17:22:54;99553.72;;;17.61;100.00
41515;BME280;27247;48.020;16.720;2023-05-23T17:27:04;99551.75;;;17.75;100.00
41515;BME280;27247;48.020;16.720;2023-05-23T17:31:15;99558.59;;;17.89;100.00
41515;BME280;27247;48.020;16.720;2023-05-23T17:35:25;99549.06;;;17.86;100.00
41515;BME280;27247;48.020;16.720;2023-05-23T17:39:36;99550.38;;;17.84;100.00
41515;BME280;27247;48.020;16.720;2023-05-23T17:43:46;99547.06;;;17.82;100.00
41515;BME280;27247;48.020;16.720;2023-05-23T17:47:57;99539.41;;;17.79;100.00
41515;BME280;27247;48.020;16.720;2023-05-23T17:52:07;99537.41;;;17.74;100.00
41515;BME280;27247;48.020;16.720;2023-05-23T17:56:19;99536.56;;;17.74;100.00
41515;BME280;27247;48.020;16.720;2023-05-23T18:00:32;99538.91;;;17.70;100.00
41515;BME280;27247;48.020;16.720;2023-05-23T18:04:42;99550.97;;;17.68;100.00
41515;BME280;27247;48.020;16.720;2023-05-23T18:08:53;99544.56;;;17.62;100.00
41515;BME280;27247;48.020;16.720;2023-05-23T18:13:04;99533.53;;;17.64;100.00
41515;BME280;27247;48.020;16.720;2023-05-23T18:17:14;99537.97;;;17.58;100.00
41515;BME280;27247;48.020;16.720;2023-05-23T18:21:26;99545.13;;;17.52;100.00
41515;BME280;27247;48.020;16.720;2023-05-23T18:25:37;99542.19;;;17.54;100.00
41515;BME280;27247;48.020;16.720;2023-05-23T18:29:48;99546.41;;;17.50;100.00
41515;BME280;27247;48.020;16.720;2023-05-23T18:33:58;99534.16;;;17.47;100.00
41515;BME280;27247;48.020;16.720;2023-05-23T18:38:08;99543.09;;;17.48;100.00
41515;BME280;27247;48.020;16.720;2023-05-23T18:42:19;99540.03;;;17.44;100.00
41515;BME280;27247;48.020;16.720;2023-05-23T18:46:29;99554.91;;;17.35;100.00
41515;BME280;27247;48.020;16.720;2023-05-23T18:50:39;99553.03;;;17.36;100.00
41515;BME280;27247;48.020;16.720;2023-05-23T18:54:50;99552.06;;;17.30;100.00
41515;BME280;27247;48.020;16.720;2023-05-23T18:59:03;99557.09;;;17.27;100.00
41515;BME280;27247;48.020;16.720;2023-05-23T19:03:15;99565.84;;;17.22;100.00
41515;BME280;27247;48.020;16.720;2023-05-23T19:07:25;99559.03;;;17.19;100.00
41515;BME280;27247;48.020;16.720;2023-05-23T19:11:36;99577.13;;;17.19;100.00
41515;BME280;27247;48.020;16.720;2023-05-23T19:15:47;99571.25;;;17.22;100.00
41515;BME280;27247;48.020;16.720;2023-05-23T19:19:59;99580.63;;;17.19;100.00
41515;BME280;27247;48.020;16.720;2023-05-23T19:24:10;99578.63;;;17.15;100.00
41515;BME280;27247;48.020;16.720;2023-05-23T19:28:21;99583.19;;;17.14;100.00
41515;BME280;27247;48.020;16.720;2023-05-23T19:32:31;99580.34;;;17.09;100.00
41515;BME280;27247;48.020;16.720;2023-05-23T19:36:41;99580.19;;;17.04;100.00
41515;BME280;27247;48.020;16.720;2023-05-23T19:40:52;99579.34;;;17.04;100.00
41515;BME280;27247;48.020;16.720;2023-05-23T19:45:03;99577.31;;;16.99;100.00
41515;BME280;27247;48.020;16.720;2023-05-23T19:49:13;99590.91;;;16.92;100.00
41515;BME280;27247;48.020;16.720;2023-05-23T19:53:26;99602.13;;;16.89;100.00
41515;BME280;27247;48.020;16.720;2023-05-23T19:57:36;99600.47;;;16.88;100.00
41515;BME280;27247;48.020;16.720;2023-05-23T20:01:47;99608.34;;;16.90;100.00
41515;BME280;27247;48.020;16.720;2023-05-23T20:05:57;99611.06;;;16.90;100.00
41515;BME280;27247;48.020;16.720;2023-05-23T20:10:08;99621.53;;;16.80;100.00
41515;BME280;27247;48.020;16.720;2023-05-23T20:14:18;99622.34;;;16.80;100.00
41515;BME280;27247;48.020;16.720;2023-05-23T20:18:28;99620.81;;;16.91;100.00
41515;BME280;27247;48.020;16.720;2023-05-23T20:22:39;99618.72;;;16.93;100.00
41515;BME280;27247;48.020;16.720;2023-05-23T20:26:49;99620.97;;;16.96;100.00
41515;BME280;27247;48.020;16.720;2023-05-23T20:31:00;99620.03;;;16.84;100.00
41515;BME280;27247;48.020;16.720;2023-05-23T20:35:11;99621.16;;;16.76;100.00
41515;BME280;27247;48.020;16.720;2023-05-23T20:39:21;99637.00;;;16.66;100.00
41515;BME280;27247;48.020;16.720;2023-05-23T20:43:34;99628.53;;;16.56;100.00
41515;BME280;27247;48.020;16.720;2023-05-23T20:47:46;99632.91;;;16.50;100.00
41515;BME280;27247;48.020;16.720;2023-05-23T20:51:56;99642.72;;;16.45;100.00
41515;BME280;27247;48.020;16.720;2023-05-23T20:56:07;99648.72;;;16.47;100.00
41515;BME280;27247;48.020;16.720;2023-05-23T21:00:19;99653.53;;;16.38;100.00
41515;BME280;27247;48.020;16.720;2023-05-23T21:04:30;99661.84;;;16.37;100.00
41515;BME280;27247;48.020;16.720;2023-05-23T21:08:40;99654.19;;;16.34;100.00
41515;BME280;27247;48.020;16.720;2023-05-23T21:12:51;99660.41;;;16.34;100.00
41515;BME280;27247;48.020;16.720;2023-05-23T21:17:01;99664.16;;;16.33;100.00
41515;BME280;27247;48.020;16.720;2023-05-23T21:21:12;99669.94;;;16.37;100.00
41515;BME280;27247;48.020;16.720;2023-05-23T21:25:22;99677.16;;;16.43;100.00
41515;BME280;27247;48.020;16.720;2023-05-23T21:29:33;99673.00;;;16.47;100.00
41515;BME280;27247;48.020;16.720;2023-05-23T21:33:43;99674.81;;;16.53;100.00
41515;BME280;27247;48.020;16.720;2023-05-23T21:37:54;99668.34;;;16.60;100.00
41515;BME280;27247;48.020;16.720;2023-05-23T21:42:05;99666.69;;;16.59;100.00
41515;BME280;27247;48.020;16.720;2023-05-23T21:46:17;99673.16;;;16.52;100.00
41515;BME280;27247;48.020;16.720;2023-05-23T21:50:28;99674.44;;;16.49;100.00